3小时前
罗盘
风向 的 风向 300° Meppen Air Base 06/24
风: 14 千吨, 4 beaufort
0 500 1.500 3.000 5.000 8.000 10.000
FEW 1.000 ft
SCT 1.500 ft
METAR ETND 201420Z 30014KT 9999 -SHRASN FEW010 SCT015CB 03/M01 Q1023 RESHRA BLU+

METAR定义 | 嵌入

24小时趋势

航班类别VFRLIFR
温度4 °C1 °C
风速14 千吨0 千吨
能见度10 公里+0 米

更多历史数据

下载我们的安卓应用程序

从你的主屏幕上轻松地访问你的航空天气。
只需一次付费,您就可以获得无广告的体验。

您会帮助我们保持Metar-Taf.com正常运行吗?
您的贡献有助于网站的进一步开发并支付费用。

没有更多广告

您是捐款5美元还是更多?然后,我们将永远不会再向您展示广告,这是我们永恒的感谢!
捐赠前先登录

METAR Meppen Air Base

该字段位于德国中。 机场有{a,plural,=1{一条跑道} other{#跑道}}: 06/24

Meppen Air Base最近未发布观察结果。相反,我们向您显示70 km的报告Diepholz Air Base。 该报告是针对2022年1月20日 15:20, 当地时间进行的。

机场观察

风来自西北西 (300°)方向,速度为14 千吨。

可见度为10 公里 或者更多。

有几云在1.000 ft的高度 和 疏云,零星散落的云朵 , 积雨云在1.500 ft的高度。 没有观察到天花板。

当前天气为光 阵雨 雨 雪。 温度为3 °C,阵风为-4 °C。 露点为-1 °C,相对湿度为75%。 海平面上的气压为1023 压力 (QNH)。 最近是阵雨 雨。

白天

今天,太阳从08:29升起,在16:53降落。 这适用于Meppen Air Base,世界夏令时可能有所不同。 当地时间与世界标准时间之间的时差为+1 小时。 当前,没有夏令时有效。

公司介绍

我们没有关于这个机场的公司信息。

体会

到Vliegles.nl去找飞行课程,跳伞和其他飞行体验。 浏览页面,了解Meppen Air Base附近所有可用的活动。 你也可以使用搜索功能来寻找你所在地附近的特定飞行课程、跳伞或其他飞行体验。

您是否要在网站上Meppen Air Base飞行的天气? 阅读更多   自由!